createdAt,value
2022-12-11T00:02:38.413Z,20.02
2022-12-11T00:05:41.446Z,17.30
2022-12-11T00:08:44.495Z,15.33
2022-12-11T00:11:47.905Z,20.35
2022-12-11T00:14:50.448Z,22.27
2022-12-11T00:17:53.139Z,20.52
2022-12-11T00:20:55.566Z,20.17
2022-12-11T00:23:58.258Z,17.70
2022-12-11T00:27:01.847Z,21.67
2022-12-11T00:30:06.207Z,23.45
2022-12-11T00:33:09.692Z,24.48
2022-12-11T00:36:20.523Z,19.45
2022-12-11T00:39:22.969Z,26.53
2022-12-11T00:42:25.679Z,26.33
2022-12-11T00:45:28.234Z,28.55
2022-12-11T00:48:31.092Z,23.02
2022-12-11T00:51:33.662Z,25.80
2022-12-11T00:54:36.391Z,23.83
2022-12-11T00:57:38.983Z,21.35
2022-12-11T01:00:42.516Z,28.08
2022-12-11T01:03:45.630Z,26.73
2022-12-11T01:06:49.207Z,26.83
2022-12-11T01:10:12.154Z,14.67
2022-12-11T01:13:15.511Z,21.87
2022-12-11T01:16:18.053Z,23.58
2022-12-11T01:19:20.754Z,17.80
2022-12-11T01:22:23.256Z,18.55
2022-12-11T01:25:26.980Z,22.40
2022-12-11T01:28:29.446Z,20.85
2022-12-11T01:31:32.199Z,18.55
2022-12-11T01:34:34.670Z,19.17
2022-12-11T01:37:37.591Z,19.83
2022-12-11T01:40:49.271Z,23.20
2022-12-11T01:44:13.767Z,17.20
2022-12-11T01:47:17.218Z,19.77
2022-12-11T01:50:20.280Z,23.05
2022-12-11T01:53:30.375Z,21.75
2022-12-11T01:56:34.641Z,20.47
2022-12-11T01:59:40.883Z,15.63
2022-12-11T02:02:44.072Z,24.05
2022-12-11T02:05:46.995Z,24.45
2022-12-11T02:08:49.935Z,24.15
2022-12-11T02:12:11.074Z,25.07
2022-12-11T02:15:47.442Z,29.23
2022-12-11T02:19:28.898Z,26.30
2022-12-11T02:22:50.217Z,25.88
2022-12-11T02:26:11.242Z,28.15
2022-12-11T02:29:33.831Z,22.60
2022-12-11T02:32:47.069Z,31.73
2022-12-11T02:35:50.019Z,32.78
2022-12-11T02:38:54.866Z,31.90
2022-12-11T02:41:57.742Z,33.97
2022-12-11T02:45:01.564Z,33.67
2022-12-11T02:48:06.149Z,27.77
2022-12-11T02:51:10.149Z,33.13
2022-12-11T02:54:20.968Z,26.90
2022-12-11T02:57:48.052Z,24.30
2022-12-11T03:00:50.576Z,20.70
2022-12-11T03:03:55.044Z,25.40
2022-12-11T03:07:01.646Z,26.05
2022-12-11T03:10:07.124Z,22.40
2022-12-11T03:13:09.841Z,23.98
2022-12-11T03:16:17.922Z,28.07
2022-12-11T03:19:35.790Z,26.23
2022-12-11T03:22:47.980Z,24.77
2022-12-11T03:25:57.546Z,25.80
2022-12-11T03:29:03.539Z,23.90
2022-12-11T03:32:20.227Z,24.03
2022-12-11T03:35:32.184Z,25.50
2022-12-11T03:38:39.000Z,28.30
2022-12-11T03:41:42.915Z,27.25
2022-12-11T03:44:48.398Z,31.85
2022-12-11T03:47:53.089Z,27.03
2022-12-11T03:50:56.090Z,29.63
2022-12-11T03:53:59.531Z,30.73
2022-12-11T03:57:03.261Z,30.30
2022-12-11T04:00:11.277Z,23.05
2022-12-11T04:03:14.695Z,34.93
2022-12-11T04:06:17.797Z,38.20
2022-12-11T04:09:20.200Z,25.02
2022-12-11T04:12:23.099Z,29.77
2022-12-11T04:15:25.515Z,34.83
2022-12-11T04:18:57.443Z,39.17
2022-12-11T04:22:18.780Z,48.65
2022-12-11T04:25:21.552Z,42.88
2022-12-11T04:28:23.958Z,40.60
2022-12-11T04:31:26.898Z,34.55
2022-12-11T04:34:29.596Z,32.20
2022-12-11T04:37:32.356Z,36.13
2022-12-11T04:40:34.859Z,32.42
2022-12-11T04:43:37.939Z,32.85
2022-12-11T04:46:40.463Z,33.97
2022-12-11T04:49:43.549Z,31.37
2022-12-11T04:52:45.965Z,35.70
2022-12-11T04:55:48.729Z,31.90
2022-12-11T04:58:51.233Z,36.88
2022-12-11T05:01:54.311Z,30.35
2022-12-11T05:04:56.756Z,31.73
2022-12-11T05:07:59.584Z,33.90
2022-12-11T05:11:04.825Z,29.50
2022-12-11T05:14:07.712Z,25.08
2022-12-11T05:17:10.191Z,27.75
2022-12-11T05:20:13.172Z,29.83
2022-12-11T05:23:15.630Z,25.30
2022-12-11T05:26:20.790Z,29.30
2022-12-11T05:29:23.261Z,28.25
2022-12-11T05:32:26.022Z,29.70
2022-12-11T05:35:28.521Z,25.07
2022-12-11T05:38:31.329Z,28.35
2022-12-11T05:41:34.281Z,29.20
2022-12-11T05:44:37.115Z,28.05
2022-12-11T05:47:39.595Z,24.25
2022-12-11T05:50:42.390Z,26.77
2022-12-11T05:53:46.266Z,26.23
2022-12-11T05:56:51.190Z,26.37
2022-12-11T05:59:53.590Z,27.98
2022-12-11T06:02:56.407Z,32.90
2022-12-11T06:06:02.947Z,24.03
2022-12-11T06:09:05.953Z,22.70
2022-12-11T06:12:10.459Z,29.12
2022-12-11T06:15:13.334Z,29.77
2022-12-11T06:18:16.237Z,31.05
2022-12-11T06:21:22.285Z,30.73
2022-12-11T06:24:25.101Z,25.60
2022-12-11T06:27:27.537Z,24.35
2022-12-11T06:30:38.284Z,28.55
2022-12-11T06:33:42.309Z,29.27
2022-12-11T06:36:45.036Z,30.27
2022-12-11T06:39:47.582Z,29.15
2022-12-11T06:42:50.346Z,30.65
2022-12-11T06:45:53.058Z,29.20
2022-12-11T06:48:55.877Z,28.62
2022-12-11T06:51:58.721Z,23.50
2022-12-11T06:55:01.701Z,30.30
2022-12-11T06:58:05.543Z,29.00
2022-12-11T07:01:20.019Z,29.15
2022-12-11T07:04:24.953Z,30.15
2022-12-11T07:07:27.689Z,32.30
2022-12-11T07:10:30.506Z,28.08
2022-12-11T07:13:33.952Z,22.52
2022-12-11T07:16:36.573Z,24.85
2022-12-11T07:19:39.383Z,21.90
2022-12-11T07:22:46.452Z,22.33
2022-12-11T07:25:49.750Z,28.87
2022-12-11T07:28:52.305Z,27.55
2022-12-11T07:31:55.211Z,20.88
2022-12-11T07:34:57.858Z,23.15
2022-12-11T07:38:00.582Z,25.67
2022-12-11T07:41:05.379Z,22.30
2022-12-11T07:44:08.672Z,22.55
2022-12-11T07:47:11.224Z,27.15
2022-12-11T07:50:13.945Z,29.43
2022-12-11T07:53:16.413Z,25.55
2022-12-11T07:56:19.623Z,23.48
2022-12-11T07:59:22.147Z,25.67
2022-12-11T08:02:24.909Z,21.37
2022-12-11T08:05:27.827Z,20.47
2022-12-11T08:08:30.306Z,22.10
2022-12-11T08:11:34.321Z,24.77
2022-12-11T08:14:37.529Z,23.40
2022-12-11T08:17:40.485Z,18.43
2022-12-11T08:20:43.180Z,21.60
2022-12-11T08:23:47.260Z,22.37
2022-12-11T08:26:49.731Z,19.30
2022-12-11T08:29:52.479Z,24.42
2022-12-11T08:32:54.934Z,20.90
2022-12-11T08:35:57.739Z,17.97
2022-12-11T08:39:00.197Z,21.65
2022-12-11T08:42:03.249Z,26.17
2022-12-11T08:45:06.515Z,21.23
2022-12-11T08:48:09.590Z,12.60
2022-12-11T08:51:15.783Z,15.90
2022-12-11T08:54:18.556Z,21.77
2022-12-11T08:57:20.961Z,20.62
2022-12-11T09:00:24.158Z,20.17
2022-12-11T09:03:26.816Z,20.47
2022-12-11T09:06:30.275Z,13.80
2022-12-11T09:09:32.899Z,19.10
2022-12-11T09:12:36.911Z,16.37
2022-12-11T09:15:42.758Z,20.15
2022-12-11T09:18:47.645Z,17.30
2022-12-11T09:21:50.083Z,20.53
2022-12-11T09:24:53.527Z,19.23
2022-12-11T09:27:56.008Z,17.27
2022-12-11T09:30:58.822Z,19.12
2022-12-11T09:34:04.977Z,20.17
2022-12-11T09:37:07.800Z,19.77
2022-12-11T09:40:12.479Z,16.73
2022-12-11T09:43:36.701Z,19.00
2022-12-11T09:46:40.361Z,17.95
2022-12-11T09:49:45.066Z,20.60
2022-12-11T09:52:47.404Z,19.00
2022-12-11T09:55:58.983Z,17.65
2022-12-11T09:59:19.636Z,17.33
2022-12-11T10:02:58.261Z,14.93
2022-12-11T10:06:24.358Z,20.00
2022-12-11T10:09:33.681Z,19.53
2022-12-11T10:12:52.763Z,15.90
2022-12-11T10:16:01.296Z,22.37
2022-12-11T10:19:04.519Z,16.77
2022-12-11T10:22:14.597Z,17.43
2022-12-11T10:25:42.219Z,18.23
2022-12-11T10:28:45.226Z,13.32
2022-12-11T10:31:56.082Z,21.05
2022-12-11T10:35:02.794Z,14.77
2022-12-11T10:38:29.566Z,19.50
2022-12-11T10:41:39.263Z,18.57
2022-12-11T10:44:42.083Z,13.48
2022-12-11T10:47:44.679Z,19.60
2022-12-11T10:50:57.570Z,17.75
2022-12-11T10:54:09.223Z,18.07
2022-12-11T10:57:14.509Z,18.03
2022-12-11T11:00:39.109Z,15.18
2022-12-11T11:03:58.282Z,16.20
2022-12-11T11:07:11.794Z,21.00
2022-12-11T11:10:17.531Z,20.50
2022-12-11T11:13:22.945Z,15.13
2022-12-11T11:16:25.799Z,21.42
2022-12-11T11:19:33.781Z,19.65
2022-12-11T11:22:39.447Z,14.63
2022-12-11T11:25:51.479Z,17.53
2022-12-11T11:28:56.553Z,14.73
2022-12-11T11:32:12.915Z,18.12
2022-12-11T11:35:21.679Z,23.50
2022-12-11T11:38:28.441Z,19.83
2022-12-11T11:41:36.031Z,20.80
2022-12-11T11:44:47.845Z,18.13
2022-12-11T11:48:14.756Z,17.95
2022-12-11T11:51:40.353Z,10.75
2022-12-11T11:55:06.622Z,15.32
2022-12-11T11:58:42.351Z,13.73
2022-12-11T12:01:45.293Z,16.57
2022-12-11T12:04:49.821Z,16.60
2022-12-11T12:08:05.547Z,15.90
2022-12-11T12:11:42.908Z,17.77
2022-12-11T12:15:14.357Z,15.70
2022-12-11T12:18:45.599Z,13.57
2022-12-11T12:21:52.126Z,15.18
2022-12-11T12:25:20.013Z,13.27
2022-12-11T12:28:31.779Z,16.90
2022-12-11T12:31:46.878Z,16.40
2022-12-11T12:35:04.454Z,15.47
2022-12-11T12:38:22.479Z,15.75
2022-12-11T12:41:51.194Z,14.73
2022-12-11T12:44:59.538Z,11.90
2022-12-11T12:48:02.216Z,10.87
2022-12-11T12:51:06.267Z,12.63
2022-12-11T12:54:14.317Z,11.00
2022-12-11T12:57:17.183Z,12.60
2022-12-11T13:00:41.549Z,12.68
2022-12-11T13:03:57.779Z,13.33
2022-12-11T13:07:16.178Z,9.87
2022-12-11T13:10:42.116Z,10.32
2022-12-11T13:13:54.830Z,9.48
2022-12-11T13:17:19.809Z,13.88
2022-12-11T13:20:24.434Z,11.30
2022-12-11T13:23:32.638Z,10.47
2022-12-11T13:26:35.258Z,11.95
2022-12-11T13:29:40.958Z,10.98
2022-12-11T13:32:51.917Z,13.18
2022-12-11T13:36:09.906Z,12.50
2022-12-11T13:39:25.881Z,11.70
2022-12-11T13:42:34.033Z,13.10
2022-12-11T13:45:42.521Z,11.12
2022-12-11T13:49:01.114Z,10.88
2022-12-11T13:52:04.944Z,12.43
2022-12-11T13:55:17.735Z,11.97
2022-12-11T13:58:22.234Z,12.75
2022-12-11T14:01:28.300Z,11.15
2022-12-11T14:04:31.964Z,12.05
2022-12-11T14:07:48.046Z,10.90
2022-12-11T14:10:52.720Z,13.27
2022-12-11T14:14:00.699Z,12.07
2022-12-11T14:17:03.554Z,12.98
2022-12-11T14:20:09.440Z,12.13
2022-12-11T14:23:20.054Z,9.97
2022-12-11T14:26:34.269Z,11.80
2022-12-11T14:29:37.177Z,10.40
2022-12-11T14:32:45.232Z,11.05
2022-12-11T14:35:48.945Z,14.80
2022-12-11T14:39:03.622Z,13.07
2022-12-11T14:42:11.885Z,11.10
2022-12-11T14:45:32.970Z,9.32
2022-12-11T14:49:00.752Z,9.43
2022-12-11T14:52:04.975Z,11.73
2022-12-11T14:55:13.167Z,18.40
2022-12-11T14:58:18.972Z,9.00
2022-12-11T15:01:27.270Z,11.95
2022-12-11T15:04:32.577Z,13.20
2022-12-11T15:07:35.465Z,9.75
2022-12-11T15:10:41.583Z,11.00
2022-12-11T15:13:54.696Z,9.70
2022-12-11T15:16:57.670Z,9.57
2022-12-11T15:20:05.962Z,10.88
2022-12-11T15:23:08.621Z,10.73
2022-12-11T15:26:11.803Z,12.67
2022-12-11T15:29:38.419Z,9.80
2022-12-11T15:32:41.815Z,7.85
2022-12-11T15:36:00.604Z,13.27
2022-12-11T15:39:05.765Z,12.37
2022-12-11T15:42:10.696Z,9.97
2022-12-11T15:45:22.016Z,7.30
2022-12-11T15:48:24.778Z,13.00
2022-12-11T15:51:29.184Z,15.05
2022-12-11T15:54:31.673Z,9.35
2022-12-11T15:57:34.699Z,11.40
2022-12-11T16:00:37.229Z,13.37
2022-12-11T16:03:40.706Z,7.35
2022-12-11T16:06:46.399Z,11.88
2022-12-11T16:09:49.509Z,12.63
2022-12-11T16:12:52.079Z,11.83
2022-12-11T16:15:54.935Z,9.87
2022-12-11T16:18:57.528Z,11.23
2022-12-11T16:22:00.538Z,8.95
2022-12-11T16:25:03.172Z,14.18
2022-12-11T16:28:07.853Z,16.67
2022-12-11T16:31:12.259Z,14.40
2022-12-11T16:34:15.077Z,12.80
2022-12-11T16:37:17.606Z,12.65
2022-12-11T16:40:21.545Z,12.70
2022-12-11T16:43:24.212Z,11.10
2022-12-11T16:46:27.281Z,21.43
2022-12-11T16:49:31.301Z,12.25
2022-12-11T16:52:35.231Z,15.32
2022-12-11T16:55:39.648Z,12.00
2022-12-11T16:58:42.507Z,10.87
2022-12-11T17:01:45.757Z,14.27
2022-12-11T17:04:53.722Z,7.03
2022-12-11T17:07:56.633Z,8.00
2022-12-11T17:10:59.643Z,7.75
2022-12-11T17:14:02.351Z,9.60
2022-12-11T17:17:05.192Z,9.23
2022-12-11T17:20:09.123Z,12.32
2022-12-11T17:23:13.525Z,11.15
2022-12-11T17:26:16.611Z,8.80
2022-12-11T17:29:20.081Z,8.03
2022-12-11T17:32:22.654Z,14.40
2022-12-11T17:35:25.689Z,12.15
2022-12-11T17:38:28.815Z,6.25
2022-12-11T17:41:32.644Z,9.15
2022-12-11T17:44:36.259Z,14.13
2022-12-11T17:47:40.359Z,11.97
2022-12-11T17:50:44.035Z,12.43
2022-12-11T17:53:47.789Z,10.23
2022-12-11T17:56:50.963Z,16.15
2022-12-11T17:59:55.099Z,10.80
2022-12-11T18:02:57.770Z,10.43
2022-12-11T18:06:05.854Z,9.27
2022-12-11T18:09:08.563Z,10.95
2022-12-11T18:12:12.111Z,10.23
2022-12-11T18:15:15.203Z,8.20
2022-12-11T18:18:18.143Z,9.13
2022-12-11T18:21:24.302Z,12.00
2022-12-11T18:24:31.823Z,12.10
2022-12-11T18:27:34.368Z,9.57
2022-12-11T18:30:39.029Z,9.00
2022-12-11T18:33:44.410Z,10.13
2022-12-11T18:36:47.444Z,12.65
2022-12-11T18:39:51.209Z,9.63
2022-12-11T18:42:54.853Z,9.32
2022-12-11T18:45:57.619Z,8.37
2022-12-11T18:49:00.649Z,11.50
2022-12-11T18:52:04.218Z,9.98
2022-12-11T18:55:07.699Z,7.80
2022-12-11T18:58:12.115Z,7.55
2022-12-11T19:01:34.585Z,13.03
2022-12-11T19:04:37.751Z,12.77
2022-12-11T19:07:40.818Z,11.20
2022-12-11T19:10:46.529Z,8.50
2022-12-11T19:13:50.212Z,13.77
2022-12-11T19:16:53.294Z,6.43
2022-12-11T19:19:56.341Z,12.53
2022-12-11T19:22:59.104Z,13.60
2022-12-11T19:26:02.445Z,8.57
2022-12-11T19:29:05.166Z,7.97
2022-12-11T19:32:08.188Z,6.93
2022-12-11T19:35:11.442Z,8.33
2022-12-11T19:38:14.999Z,10.30
2022-12-11T19:41:27.023Z,8.50
2022-12-11T19:44:30.373Z,12.00
2022-12-11T19:47:33.126Z,8.63
2022-12-11T19:50:36.817Z,9.27
2022-12-11T19:53:41.323Z,9.68
2022-12-11T19:56:45.385Z,8.77
2022-12-11T19:59:52.583Z,7.30
2022-12-11T20:02:58.859Z,11.53
2022-12-11T20:06:03.906Z,11.20
2022-12-11T20:09:10.913Z,10.95
2022-12-11T20:12:14.044Z,13.70
2022-12-11T20:15:19.591Z,8.63
2022-12-11T20:18:22.632Z,6.73
2022-12-11T20:21:27.248Z,11.40
2022-12-11T20:24:31.052Z,10.57
2022-12-11T20:27:33.830Z,12.07
2022-12-11T20:30:37.057Z,11.45
2022-12-11T20:33:40.273Z,11.10
2022-12-11T20:36:43.161Z,12.80
2022-12-11T20:39:46.000Z,11.57
2022-12-11T20:42:50.797Z,8.95
2022-12-11T20:45:53.637Z,10.55
2022-12-11T20:48:58.724Z,8.57
2022-12-11T20:52:01.511Z,24.43
2022-12-11T20:55:05.087Z,14.85
2022-12-11T20:58:08.917Z,17.45
2022-12-11T21:01:20.782Z,21.00
2022-12-11T21:04:23.916Z,25.80
2022-12-11T21:07:26.914Z,18.50
2022-12-11T21:10:29.478Z,12.25
2022-12-11T21:13:32.316Z,7.53
2022-12-11T21:16:36.699Z,28.55
2022-12-11T21:19:40.116Z,16.60
2022-12-11T21:22:42.642Z,17.00
2022-12-11T21:25:45.470Z,16.40
2022-12-11T21:28:48.169Z,20.65
2022-12-11T21:31:51.456Z,24.87
2022-12-11T21:34:56.867Z,22.10
2022-12-11T21:37:59.627Z,16.27
2022-12-11T21:41:23.245Z,11.00
2022-12-11T21:45:37.138Z,18.37
2022-12-11T21:47:48.833Z,18.33
2022-12-11T21:50:51.668Z,17.20
2022-12-11T21:53:54.365Z,11.60
2022-12-11T21:56:57.249Z,10.48
2022-12-11T22:00:00.068Z,12.00
2022-12-11T22:03:03.449Z,12.70
2022-12-11T22:06:07.139Z,12.43
2022-12-11T22:09:12.573Z,12.70
2022-12-11T22:12:33.325Z,15.90
2022-12-11T22:15:35.884Z,16.48
2022-12-11T22:18:38.952Z,8.38
2022-12-11T22:21:42.075Z,11.93
2022-12-11T22:24:44.896Z,13.80
2022-12-11T22:27:47.443Z,13.02
2022-12-11T22:30:50.323Z,8.23
2022-12-11T22:33:54.002Z,12.23
2022-12-11T22:36:56.905Z,12.73
2022-12-11T22:39:59.392Z,13.60
2022-12-11T22:43:02.171Z,8.95
2022-12-11T22:46:04.742Z,15.15
2022-12-11T22:49:07.550Z,13.15
2022-12-11T22:52:10.103Z,7.77
2022-12-11T22:55:13.139Z,8.10
2022-12-11T22:58:21.595Z,14.95
2022-12-11T23:01:27.203Z,11.27
2022-12-11T23:04:29.770Z,9.40
2022-12-11T23:07:32.641Z,19.53
2022-12-11T23:10:40.371Z,14.17
2022-12-11T23:13:43.395Z,11.95
2022-12-11T23:16:45.977Z,18.65
2022-12-11T23:19:49.201Z,13.35
2022-12-11T23:22:51.690Z,15.10
2022-12-11T23:25:56.726Z,8.10
2022-12-11T23:29:00.023Z,10.30
2022-12-11T23:32:03.142Z,16.27
2022-12-11T23:35:06.046Z,16.35
2022-12-11T23:38:08.779Z,11.17
2022-12-11T23:41:13.774Z,13.17
2022-12-11T23:44:16.526Z,11.88
2022-12-11T23:47:19.125Z,10.00
2022-12-11T23:50:22.273Z,10.57
2022-12-11T23:53:24.867Z,10.90
2022-12-11T23:56:29.376Z,13.07
2022-12-11T23:59:31.996Z,9.65
